Time;durP1;ratioP1;P1;durP2;ratioP2;P2;SDS_P1;SDS_P2;PMS_P1;PMS_P2;Temp;Humidity;BMP_temperature;BMP_pressure;BME280_temperature;BME280_humidity;BME280_pressure;Samples;Min_cycle;Max_cycle;Signal;HPM_P1;HPM_P2
2022/05/27 00:00:04;;;;;;;5.65;1.77;;;;;;;14.48;100.00;102158.75;5267740;28;20028;-73
2022/05/27 00:02:34;;;;;;;8.07;1.48;;;;;;;14.47;100.00;102139.97;5268586;28;20031;-72
2022/05/27 00:05:05;;;;;;;9.27;2.33;;;;;;;14.51;100.00;102136.00;5276406;28;20012;-71
2022/05/27 00:07:36;;;;;;;6.38;1.63;;;;;;;14.51;100.00;102127.91;5280231;28;20024;-71
2022/05/27 00:10:09;;;;;;;6.75;1.65;;;;;;;14.50;100.00;102136.97;5266803;28;20028;-71
2022/05/27 00:12:39;;;;;;;6.10;1.90;;;;;;;14.43;100.00;102138.59;5279412;28;20023;-71
2022/05/27 00:15:10;;;;;;;7.70;1.58;;;;;;;14.48;100.00;102136.31;5270082;28;20023;-71
2022/05/27 00:17:41;;;;;;;7.45;1.92;;;;;;;14.44;100.00;102129.50;5274370;28;20020;-71
2022/05/27 00:20:12;;;;;;;15.25;2.00;;;;;;;14.42;100.00;102132.38;5279978;28;20080;-70
2022/05/27 00:22:43;;;;;;;5.57;1.90;;;;;;;14.44;100.00;102124.94;5283594;28;20035;-71
2022/05/27 00:25:15;;;;;;;6.43;1.38;;;;;;;14.41;100.00;102125.28;5281303;28;20102;-70
2022/05/27 00:27:46;;;;;;;10.18;2.47;;;;;;;14.42;100.00;102129.66;5287172;28;20119;-71
2022/05/27 00:30:16;;;;;;;8.95;2.53;;;;;;;14.43;100.00;102133.22;5273537;28;20019;-71
2022/05/27 00:32:47;;;;;;;5.22;1.83;;;;;;;14.47;100.00;102121.09;5275449;28;20070;-71
2022/05/27 00:35:18;;;;;;;8.07;1.60;;;;;;;14.45;100.00;102129.31;5270835;28;20023;-72
2022/05/27 00:37:48;;;;;;;11.45;1.85;;;;;;;14.48;100.00;102133.59;5273831;28;20020;-73
2022/05/27 00:40:21;;;;;;;8.43;1.70;;;;;;;14.42;100.00;102128.81;5286213;28;20485;-72
2022/05/27 00:42:51;;;;;;;11.80;2.08;;;;;;;14.43;100.00;102127.81;5273602;28;20051;-73
2022/05/27 00:45:25;;;;;;;7.82;1.70;;;;;;;14.42;100.00;102120.72;5278867;28;20051;-72
2022/05/27 00:47:57;;;;;;;10.52;1.90;;;;;;;14.39;100.00;102121.03;5279746;28;20031;-71
2022/05/27 00:50:36;;;;;;;8.32;1.70;;;;;;;14.41;100.00;102124.44;5270703;28;20028;-71
2022/05/27 00:53:09;;;;;;;10.80;1.88;;;;;;;14.39;100.00;102112.94;5274654;28;20466;-71
2022/05/27 00:55:58;;;;;;;4.90;1.75;;;;;;;14.37;100.00;102115.78;5281840;28;20055;-71
2022/05/27 00:58:33;;;;;;;7.78;2.00;;;;;;;14.39;100.00;102111.06;5265704;28;20110;-72
2022/05/27 01:01:04;;;;;;;6.30;1.75;;;;;;;14.39;100.00;102108.38;5274405;28;20028;-72
2022/05/27 01:03:35;;;;;;;8.77;1.85;;;;;;;14.37;100.00;102106.84;5273163;28;20118;-70
2022/05/27 01:06:06;;;;;;;8.25;1.60;;;;;;;14.38;100.00;102103.13;5273393;28;20095;-69
2022/05/27 01:08:38;;;;;;;10.00;1.85;;;;;;;14.39;100.00;102104.84;5266153;28;20473;-69
2022/05/27 01:11:45;;;;;;;9.43;1.80;;;;;;;14.39;100.00;102102.13;5274368;28;20024;-70
2022/05/27 01:14:41;;;;;;;10.13;2.30;;;;;;;14.39;100.00;102105.69;5272345;28;20055;-70
2022/05/27 01:17:33;;;;;;;7.53;1.67;;;;;;;14.40;100.00;102106.50;5266334;28;20087;-71
2022/05/27 01:23:37;;;;;;;6.20;2.13;;;;;;;14.39;100.00;102104.84;5280138;28;20027;-70
2022/05/27 01:26:19;;;;;;;6.90;2.03;;;;;;;14.37;100.00;102096.06;5284603;28;20023;-71
2022/05/27 01:28:54;;;;;;;14.80;2.83;;;;;;;14.28;100.00;102102.41;5272602;28;20067;-70
2022/05/27 01:31:33;;;;;;;11.85;3.20;;;;;;;14.25;100.00;102093.63;5286828;28;20430;-71
2022/05/27 01:34:11;;;;;;;8.30;2.35;;;;;;;14.20;100.00;102087.84;5282426;28;20193;-71
2022/05/27 01:37:01;;;;;;;12.15;2.58;;;;;;;14.20;100.00;102087.84;5278192;28;20024;-71
2022/05/27 01:39:47;;;;;;;12.20;2.25;;;;;;;14.18;100.00;102087.16;5265695;28;20027;-72
2022/05/27 01:42:28;;;;;;;12.82;2.95;;;;;;;14.11;100.00;102091.53;5265490;28;20427;-71
2022/05/27 01:45:13;;;;;;;15.10;2.35;;;;;;;14.10;100.00;102092.50;5279287;28;20357;-72
2022/05/27 01:47:48;;;;;;;12.48;2.60;;;;;;;14.14;100.00;102091.19;5265716;28;20056;-72
2022/05/27 01:50:28;;;;;;;14.55;3.30;;;;;;;14.14;100.00;102096.59;5266221;28;20061;-72
2022/05/27 01:53:05;;;;;;;7.85;2.10;;;;;;;14.12;100.00;102085.13;5282152;28;20024;-70
2022/05/27 01:55:39;;;;;;;16.98;2.75;;;;;;;14.15;100.00;102084.78;5290623;28;20099;-71
2022/05/27 01:58:36;;;;;;;11.40;2.40;;;;;;;14.12;100.00;102086.97;5289534;28;20043;-71
2022/05/27 02:01:14;;;;;;;18.55;2.97;;;;;;;14.10;100.00;102089.81;5277008;28;20024;-71
2022/05/27 02:03:54;;;;;;;12.63;2.50;;;;;;;14.09;100.00;102092.69;5278287;28;20016;-71
2022/05/27 02:06:32;;;;;;;8.32;2.20;;;;;;;14.16;100.00;102093.75;5286920;27;20047;-71
2022/05/27 02:09:12;;;;;;;13.45;2.53;;;;;;;14.12;100.00;102082.41;5269296;28;20020;-70
2022/05/27 02:11:48;;;;;;;12.75;2.95;;;;;;;14.11;100.00;102088.84;5280003;28;20103;-71
2022/05/27 02:14:25;;;;;;;12.68;2.67;;;;;;;14.06;100.00;102088.47;5275436;28;20020;-70
2022/05/27 02:17:02;;;;;;;9.18;2.53;;;;;;;14.00;100.00;102094.47;5269828;28;20027;-71
2022/05/27 02:19:55;;;;;;;14.25;2.67;;;;;;;13.95;100.00;102099.50;5286845;28;20023;-70
2022/05/27 02:22:32;;;;;;;17.05;3.30;;;;;;;13.94;100.00;102100.50;5274860;28;20505;-71
2022/05/27 02:25:22;;;;;;;15.07;3.25;;;;;;;13.97;100.00;102094.81;5268685;28;20485;-71
2022/05/27 02:28:01;;;;;;;16.38;3.13;;;;;;;13.94;100.00;102090.56;5272728;28;20024;-71
2022/05/27 02:30:35;;;;;;;17.92;3.17;;;;;;;13.97;100.00;102087.56;5269959;28;20039;-71
2022/05/27 02:36:05;;;;;;;13.02;2.83;;;;;;;13.96;100.00;102079.63;5277223;28;20039;-72
2022/05/27 02:38:35;;;;;;;14.63;3.47;;;;;;;13.90;100.00;102072.16;5268085;28;20490;-71
2022/05/27 02:41:27;;;;;;;12.02;3.40;;;;;;;13.87;100.00;102078.72;5281719;28;20053;-71
2022/05/27 02:44:34;;;;;;;17.45;3.25;;;;;;;13.90;100.00;102083.78;5276064;28;20360;-71
2022/05/27 02:47:14;;;;;;;20.75;3.67;;;;;;;13.91;100.00;102074.69;5280846;28;20389;-71
2022/05/27 02:49:54;;;;;;;19.23;3.20;;;;;;;13.90;100.00;102078.38;5276580;28;20051;-71
2022/05/27 02:53:00;;;;;;;20.63;3.28;;;;;;;13.90;100.00;102074.84;5268479;28;20099;-71
2022/05/27 02:55:35;;;;;;;12.23;2.85;;;;;;;13.90;100.00;102083.78;5270958;28;20027;-70
2022/05/27 02:58:06;;;;;;;13.00;2.80;;;;;;;13.87;100.00;102083.25;5278173;28;20018;-70
2022/05/27 03:00:39;;;;;;;15.88;3.17;;;;;;;13.88;100.00;102072.31;5268197;28;20103;-70
2022/05/27 03:03:10;;;;;;;21.48;4.32;;;;;;;13.89;100.00;102076.69;5267204;28;20385;-70
2022/05/27 03:06:06;;;;;;;16.08;3.42;;;;;;;13.83;100.00;102076.50;5274495;28;20023;-70
2022/05/27 03:09:00;;;;;;;22.67;5.07;;;;;;;13.82;100.00;102072.09;5270978;28;20028;-71
2022/05/27 03:11:58;;;;;;;13.30;3.70;;;;;;;13.85;100.00;102069.06;5277301;28;20073;-71
2022/05/27 03:14:50;;;;;;;19.52;3.40;;;;;;;13.87;100.00;102062.53;5276003;28;20474;-71
2022/05/27 03:17:35;;;;;;;14.23;3.53;;;;;;;13.83;100.00;102065.69;5268183;28;20633;-71
2022/05/27 03:20:28;;;;;;;17.88;3.90;;;;;;;13.86;100.00;102065.41;5286981;28;20023;-71
2022/05/27 03:23:24;;;;;;;21.08;3.88;;;;;;;13.87;100.00;102069.78;5272540;28;20022;-71
2022/05/27 03:25:59;;;;;;;15.82;4.10;;;;;;;13.91;100.00;102058.53;5267434;28;20028;-70
2022/05/27 03:28:43;;;;;;;14.93;3.70;;;;;;;13.90;100.00;102061.34;5270623;28;20032;-71
2022/05/27 03:31:35;;;;;;;15.25;4.43;;;;;;;13.87;100.00;102057.13;5281314;28;20036;-70
2022/05/27 03:34:41;;;;;;;14.52;4.40;;;;;;;13.81;100.00;102056.94;5270359;28;20103;-70
2022/05/27 03:37:18;;;;;;;15.38;4.20;;;;;;;13.68;100.00;102057.34;5267293;28;20032;-70
2022/05/27 03:40:21;;;;;;;23.92;4.25;;;;;;;13.58;100.00;102062.81;5269252;28;20016;-70
2022/05/27 03:42:52;;;;;;;17.65;4.65;;;;;;;13.51;100.00;102069.84;5270395;28;20028;-70
2022/05/27 03:45:23;;;;;;;18.88;5.57;;;;;;;13.50;100.00;102073.53;5277487;28;20380;-71
2022/05/27 03:47:54;;;;;;;19.58;4.80;;;;;;;13.47;100.00;102074.69;5267090;28;20020;-72
2022/05/27 03:50:26;;;;;;;13.38;4.63;;;;;;;13.44;100.00;102072.28;5267356;28;20332;-72
2022/05/27 03:52:56;;;;;;;17.00;5.63;;;;;;;13.40;100.00;102079.03;5267151;28;20090;-72
2022/05/27 03:55:27;;;;;;;17.83;5.45;;;;;;;13.39;100.00;102080.00;5274803;28;20491;-72
2022/05/27 03:57:57;;;;;;;20.88;6.40;;;;;;;13.36;100.00;102082.19;5274507;28;20070;-72
2022/05/27 04:00:28;;;;;;;24.48;6.63;;;;;;;13.39;100.00;102084.56;5275498;28;20402;-72
2022/05/27 04:02:58;;;;;;;20.83;5.57;;;;;;;13.35;100.00;102083.16;5279875;28;20034;-72
2022/05/27 04:05:29;;;;;;;25.20;6.78;;;;;;;13.32;100.00;102086.19;5274735;28;20027;-73
2022/05/27 04:07:59;;;;;;;22.00;7.15;;;;;;;13.29;100.00;102086.47;5278837;28;20023;-72
2022/05/27 04:10:30;;;;;;;22.40;6.32;;;;;;;13.25;100.00;102091.31;5271596;28;20501;-72
2022/05/27 04:13:00;;;;;;;27.38;7.90;;;;;;;13.24;100.00;102084.25;5274228;28;20020;-72
2022/05/27 04:15:31;;;;;;;34.58;8.15;;;;;;;13.20;100.00;102089.09;5268961;28;20133;-72
2022/05/27 04:18:02;;;;;;;26.80;7.90;;;;;;;13.21;100.00;102088.09;5281373;28;20080;-72
2022/05/27 04:20:32;;;;;;;21.98;7.55;;;;;;;13.21;100.00;102088.09;5275189;28;20020;-72
2022/05/27 04:23:03;;;;;;;22.10;7.38;;;;;;;13.22;100.00;102088.94;5273383;28;20181;-73
2022/05/27 04:25:33;;;;;;;20.15;7.63;;;;;;;13.23;100.00;102090.63;5274132;28;20077;-72
2022/05/27 04:28:04;;;;;;;33.13;7.75;;;;;;;13.20;100.00;102083.69;5275393;28;20508;-73
2022/05/27 04:30:34;;;;;;;23.90;8.48;;;;;;;13.24;100.00;102091.47;5270898;28;20145;-73
2022/05/27 04:33:05;;;;;;;35.08;10.00;;;;;;;13.23;100.00;102085.25;5268733;28;20024;-72
2022/05/27 04:35:36;;;;;;;25.88;10.20;;;;;;;13.23;100.00;102081.72;5269254;28;20077;-73
2022/05/27 04:38:07;;;;;;;35.40;10.45;;;;;;;13.23;100.00;102090.63;5271714;28;20099;-72
2022/05/27 04:40:37;;;;;;;39.53;11.25;;;;;;;13.24;100.00;102088.78;5266225;28;20040;-72
2022/05/27 04:43:08;;;;;;;37.15;11.35;;;;;;;13.26;100.00;102100.28;5266298;28;20102;-72
2022/05/27 04:45:38;;;;;;;34.03;11.52;;;;;;;13.29;100.00;102094.56;5280931;28;20026;-72
2022/05/27 04:48:09;;;;;;;39.25;12.07;;;;;;;13.25;100.00;102088.63;5274928;28;20058;-72
2022/05/27 04:50:40;;;;;;;33.03;11.73;;;;;;;13.30;100.00;102097.09;5271885;28;20081;-72
2022/05/27 04:53:11;;;;;;;34.58;12.68;;;;;;;13.28;100.00;102093.72;5267212;28;20103;-72
2022/05/27 04:55:42;;;;;;;43.78;12.57;;;;;;;13.25;100.00;102096.72;5267136;28;20023;-72
2022/05/27 04:58:12;;;;;;;37.55;12.90;;;;;;;13.26;100.00;102098.44;5274063;28;20418;-73
2022/05/27 05:00:45;;;;;;;37.00;12.85;;;;;;;13.27;100.00;102102.81;5273533;28;20093;-73
2022/05/27 05:03:16;;;;;;;38.67;12.13;;;;;;;13.26;100.00;102111.06;5286311;28;20098;-74
2022/05/27 05:05:47;;;;;;;51.45;13.35;;;;;;;13.27;100.00;102105.50;5285294;28;20549;-73
2022/05/27 05:08:34;;;;;;;34.33;13.55;;;;;;;13.30;100.00;102109.72;5275886;28;20052;-73
2022/05/27 05:11:05;;;;;;;36.78;13.23;;;;;;;13.35;100.00;102112.81;5273270;28;20027;-73
2022/05/27 05:13:36;;;;;;;36.97;11.90;;;;;;;13.35;100.00;102108.25;5272989;28;20032;-71
2022/05/27 05:16:06;;;;;;;45.83;13.45;;;;;;;13.40;100.00;102113.19;5265294;28;20024;-72
2022/05/27 05:18:37;;;;;;;39.55;14.63;;;;;;;13.44;100.00;102101.09;5278604;28;20470;-73
2022/05/27 05:21:07;;;;;;;37.83;14.13;;;;;;;13.47;100.00;102106.19;5275557;28;20361;-72
2022/05/27 05:23:38;;;;;;;40.40;13.48;;;;;;;13.50;100.00;102105.88;5281680;28;20106;-72
2022/05/27 05:26:09;;;;;;;32.08;14.05;;;;;;;13.59;100.00;102112.19;5267307;28;20020;-72
2022/05/27 05:28:39;;;;;;;31.33;14.07;;;;;;;13.58;100.00;102108.66;5271902;28;20036;-73
2022/05/27 05:31:16;;;;;;;35.22;14.10;;;;;;;13.63;100.00;102105.50;5278330;28;20024;-72
2022/05/27 05:33:46;;;;;;;43.90;14.57;;;;;;;13.69;100.00;102110.25;5277041;28;20115;-72
2022/05/27 05:36:17;;;;;;;41.40;14.00;;;;;;;13.70;100.00;102110.13;5279334;28;20102;-72
2022/05/27 05:38:47;;;;;;;36.75;15.30;;;;;;;13.73;100.00;102109.78;5270521;28;20400;-71
2022/05/27 05:41:31;;;;;;;37.80;14.43;;;;;;;13.82;100.00;102120.66;5272517;28;20028;-70
2022/05/27 05:44:02;;;;;;;35.15;13.70;;;;;;;13.86;100.00;102122.03;5278593;28;20035;-71
2022/05/27 05:46:35;;;;;;;33.75;13.60;;;;;;;13.91;100.00;102117.88;5272528;28;20117;-71
2022/05/27 05:49:05;;;;;;;40.63;14.88;;;;;;;13.97;100.00;102121.78;5272312;28;20077;-71
2022/05/27 05:51:36;;;;;;;41.78;14.02;;;;;;;14.01;100.00;102115.06;5271846;28;20115;-71
2022/05/27 05:54:06;;;;;;;47.28;16.42;;;;;;;14.07;100.00;102114.44;5274405;28;20024;-71
2022/05/27 05:56:37;;;;;;;41.15;15.15;;;;;;;14.20;100.00;102117.53;5270802;28;20473;-71
2022/05/27 05:59:08;;;;;;;34.38;15.05;;;;;;;14.37;100.00;102112.25;5271395;28;20145;-71
2022/05/27 06:01:38;;;;;;;39.65;14.77;;;;;;;14.48;100.00;102114.69;5269430;28;20282;-71
2022/05/27 06:04:09;;;;;;;39.42;15.77;;;;;;;14.44;100.00;102116.00;5270878;28;20389;-71
2022/05/27 06:06:41;;;;;;;37.17;15.57;;;;;;;14.39;100.00;102121.03;5286040;28;20030;-71
2022/05/27 06:09:11;;;;;;;39.75;15.10;;;;;;;14.37;100.00;102123.91;5275749;27;20393;-71
2022/05/27 06:11:42;;;;;;;34.80;15.15;;;;;;;14.40;100.00;102126.25;5270663;28;20032;-71
2022/05/27 06:14:12;;;;;;;34.45;15.18;;;;;;;14.45;100.00;102125.78;5271501;28;20432;-71
2022/05/27 06:16:43;;;;;;;42.55;16.20;;;;;;;14.53;100.00;102133.13;5278965;28;20034;-71
2022/05/27 06:19:13;;;;;;;33.97;15.90;;;;;;;14.62;100.00;102129.47;5275142;28;20027;-72
2022/05/27 06:21:44;;;;;;;37.35;16.40;;;;;;;14.94;100.00;102134.13;5277792;28;20024;-72
2022/05/27 06:24:16;;;;;;;42.00;15.55;;;;;;;15.17;100.00;102132.53;5285836;28;20049;-72
2022/05/27 06:26:46;;;;;;;36.47;15.40;;;;;;;15.22;100.00;102127.47;5276691;28;20073;-72
2022/05/27 06:34:55;;;;;;;34.78;14.70;;;;;;;15.38;100.00;102132.06;5269284;28;20431;-70
2022/05/27 06:37:26;;;;;;;35.72;14.98;;;;;;;15.49;100.00;102133.59;5278698;28;20026;-70
2022/05/27 06:39:57;;;;;;;34.28;14.70;;;;;;;15.53;100.00;102132.25;5271668;27;20024;-70
2022/05/27 06:42:28;;;;;;;34.22;14.50;;;;;;;15.50;100.00;102127.16;5281944;28;20027;-70
2022/05/27 06:44:58;;;;;;;30.65;13.75;;;;;;;15.46;100.00;102133.91;5270130;28;20495;-70
2022/05/27 06:47:29;;;;;;;30.13;13.18;;;;;;;15.56;100.00;102142.72;5278991;28;20119;-70
2022/05/27 06:49:59;;;;;;;33.55;14.05;;;;;;;15.93;100.00;102138.72;5267001;28;20027;-70
2022/05/27 06:52:30;;;;;;;27.05;13.70;;;;;;;16.45;100.00;102143.69;5275891;28;20023;-70
2022/05/27 06:55:00;;;;;;;27.65;12.85;;;;;;;17.38;100.00;102145.69;5272996;27;20111;-70
2022/05/27 06:57:33;;;;;;;23.67;10.45;;;;;;;18.43;100.00;102145.81;5268226;28;20099;-70
2022/05/27 07:00:07;;;;;;;21.30;10.23;;;;;;;18.51;100.00;102138.41;5268397;28;20036;-70
2022/05/27 07:02:37;;;;;;;16.42;8.85;;;;;;;18.27;100.00;102138.66;5270773;28;20023;-70
2022/05/27 07:05:08;;;;;;;24.05;9.63;;;;;;;17.83;100.00;102145.72;5272503;28;20035;-70
2022/05/27 07:07:39;;;;;;;19.13;8.82;;;;;;;17.46;100.00;102148.31;5271718;28;20026;-70
2022/05/27 07:10:10;;;;;;;23.98;8.45;;;;;;;17.13;100.00;102153.13;5269372;28;20036;-70
2022/05/27 07:12:40;;;;;;;23.63;9.27;;;;;;;17.49;100.00;102150.69;5269534;27;20157;-70
2022/05/27 07:15:11;;;;;;;19.38;7.28;;;;;;;18.21;100.00;102151.13;5274743;28;20476;-70
2022/05/27 07:17:42;;;;;;;18.35;6.28;;;;;;;19.40;100.00;102155.44;5267244;28;20032;-70
2022/05/27 07:20:12;;;;;;;11.82;5.07;;;;;;;20.80;100.00;102149.28;5264907;28;20054;-70
2022/05/27 07:22:43;;;;;;;14.57;5.32;;;;;;;20.40;100.00;102146.28;5276143;28;20027;-70
2022/05/27 07:25:15;;;;;;;13.30;5.28;;;;;;;20.20;100.00;102153.50;5270393;28;20426;-70
2022/05/27 07:27:45;;;;;;;9.95;4.70;;;;;;;20.48;100.00;102142.56;5274291;28;20455;-70
2022/05/27 07:30:16;;;;;;;11.98;3.22;;;;;;;20.72;100.00;102149.44;5281151;28;20353;-70
2022/05/27 07:32:46;;;;;;;10.70;3.40;;;;;;;20.18;100.00;102147.38;5284477;28;20311;-70
2022/05/27 07:35:17;;;;;;;16.38;4.28;;;;;;;19.35;100.00;102155.19;5281355;28;20107;-70
2022/05/27 07:37:48;;;;;;;8.15;3.80;;;;;;;18.80;100.00;102153.88;5285608;28;20211;-70
2022/05/27 07:40:19;;;;;;;8.57;3.50;;;;;;;18.50;100.00;102157.63;5275630;28;20027;-70
2022/05/27 07:42:49;;;;;;;9.70;3.72;;;;;;;18.95;100.00;102156.59;5264669;28;20035;-70
2022/05/27 07:45:26;;;;;;;10.80;3.20;;;;;;;19.85;100.00;102150.69;5282789;28;20388;-70
2022/05/27 07:47:56;;;;;;;8.10;3.50;;;;;;;20.48;100.00;102145.31;5280299;28;20020;-70
2022/05/27 07:50:27;;;;;;;10.85;3.42;;;;;;;20.40;100.00;102156.34;5274437;28;20061;-70
2022/05/27 07:52:58;;;;;;;7.70;2.83;;;;;;;19.90;100.00;102156.38;5273467;28;20054;-70
2022/05/27 07:55:28;;;;;;;9.88;2.85;;;;;;;19.53;100.00;102160.19;5275335;28;20378;-70
2022/05/27 07:57:59;;;;;;;7.90;2.75;;;;;;;19.05;100.00;102162.56;5281078;28;20016;-70
2022/05/27 08:00:32;;;;;;;14.77;3.05;;;;;;;18.68;100.00;102154.53;5278794;28;20024;-70
2022/05/27 08:03:03;;;;;;;6.88;2.72;;;;;;;19.07;100.00;102160.50;5277255;28;20081;-70
2022/05/27 08:05:35;;;;;;;9.23;3.33;;;;;;;19.07;100.00;102165.09;5276368;28;20508;-70
2022/05/27 08:08:07;;;;;;;7.82;2.60;;;;;;;18.55;100.00;102164.19;5276821;28;20366;-70
2022/05/27 08:10:38;;;;;;;10.20;3.42;;;;;;;18.68;100.00;102169.00;5264482;28;20020;-70
2022/05/27 08:13:08;;;;;;;9.48;2.78;;;;;;;18.77;100.00;102167.84;5273009;28;20104;-70
2022/05/27 08:15:39;;;;;;;8.23;2.67;;;;;;;19.53;100.00;102164.78;5269978;28;20449;-70
2022/05/27 08:18:10;;;;;;;9.32;2.53;;;;;;;20.10;100.00;102170.19;5277975;28;20024;-70
2022/05/27 08:20:41;;;;;;;8.02;2.38;;;;;;;20.73;100.00;102169.34;5271206;28;20027;-70
2022/05/27 08:23:11;;;;;;;8.38;2.75;;;;;;;21.54;100.00;102169.50;5267958;28;20024;-70
2022/05/27 08:25:42;;;;;;;7.13;2.47;;;;;;;21.72;100.00;102164.25;5272752;28;20023;-70
2022/05/27 08:28:13;;;;;;;4.35;2.30;;;;;;;21.23;100.00;102179.03;5281109;28;20029;-70
2022/05/27 08:30:43;;;;;;;6.57;2.55;;;;;;;21.53;100.00;102176.00;5271598;28;20114;-70
2022/05/27 08:33:14;;;;;;;5.53;2.03;;;;;;;21.58;100.00;102176.22;5280867;28;20031;-70
2022/05/27 08:38:34;;;;;;;4.80;2.03;;;;;;;22.08;100.00;102166.59;5263731;28;20114;-70
2022/05/27 08:41:41;;;;;;;6.78;1.88;;;;;;;22.29;98.90;102181.09;5275601;28;20059;-70
2022/05/27 08:44:38;;;;;;;4.53;1.60;;;;;;;22.59;97.51;102179.63;5284701;28;20011;-70
2022/05/27 08:47:46;;;;;;;8.15;2.00;;;;;;;22.40;90.48;102184.06;5281392;27;20032;-70
2022/05/27 08:50:26;;;;;;;8.25;2.60;;;;;;;22.72;88.45;102179.56;5270589;28;20031;-70
2022/05/27 08:53:04;;;;;;;3.17;1.75;;;;;;;22.59;93.94;102171.41;5278756;28;20024;-70
2022/05/27 09:01:37;;;;;;;6.07;2.15;;;;;;;22.82;95.63;102172.81;5284443;27;20358;-70
2022/05/27 09:04:17;;;;;;;7.13;1.75;;;;;;;23.21;94.98;102174.56;5284640;27;20020;-70
2022/05/27 09:07:06;;;;;;;7.45;1.90;;;;;;;23.46;88.47;102171.91;5285190;28;20023;-70
2022/05/27 09:09:37;;;;;;;4.85;1.70;;;;;;;23.84;81.19;102171.03;5270557;28;20016;-70
2022/05/27 09:12:46;;;;;;;7.57;1.70;;;;;;;23.45;84.70;102172.97;5268095;28;20028;-70
2022/05/27 09:15:27;;;;;;;6.35;1.77;;;;;;;23.27;87.87;102184.66;5264761;28;20078;-70
2022/05/27 09:18:35;;;;;;;4.82;1.52;;;;;;;23.41;77.95;102172.56;5277114;28;20530;-70
2022/05/27 09:21:41;;;;;;;7.65;1.70;;;;;;;23.43;78.46;102173.19;5282709;28;20012;-70
2022/05/27 09:24:49;;;;;;;5.28;1.90;;;;;;;22.92;79.80;102174.06;5279678;28;20077;-70
2022/05/27 09:27:26;;;;;;;5.40;1.70;;;;;;;22.84;81.72;102174.28;5266547;28;20354;-70
2022/05/27 09:30:05;;;;;;;5.03;1.92;;;;;;;22.51;82.35;102182.56;5284252;28;20032;-70
2022/05/27 09:32:51;;;;;;;4.38;1.90;;;;;;;21.97;82.36;102180.88;5284586;28;20019;-70
2022/05/27 09:35:42;;;;;;;9.85;2.10;;;;;;;20.93;95.26;102187.53;5281111;28;20036;-70
2022/05/27 09:38:19;;;;;;;4.60;1.83;;;;;;;20.30;99.23;102183.94;5272612;28;20024;-70
2022/05/27 09:40:52;;;;;;;6.95;2.25;;;;;;;20.50;100.00;102175.94;5263243;28;20401;-70
2022/05/27 09:43:30;;;;;;;7.07;2.22;;;;;;;21.46;100.00;102190.47;5276807;28;20028;-70
2022/05/27 09:46:05;;;;;;;5.22;1.80;;;;;;;21.16;94.09;102189.09;5273194;28;20027;-70
2022/05/27 09:48:36;;;;;;;6.53;2.20;;;;;;;20.29;100.00;102181.44;5282421;28;20016;-70
2022/05/27 09:51:09;;;;;;;10.68;2.38;;;;;;;20.21;100.00;102187.84;5283979;28;20543;-69
2022/05/27 09:53:44;;;;;;;10.70;2.15;;;;;;;20.52;100.00;102194.81;5270465;28;20020;-70
2022/05/27 09:56:16;;;;;;;3.58;1.85;;;;;;;20.84;100.00;102207.00;5282147;27;20133;-70
2022/05/27 09:58:47;;;;;;;9.23;2.38;;;;;;;20.99;100.00;102198.69;5271931;28;20020;-70
2022/05/27 10:01:38;;;;;;;17.10;2.88;;;;;;;20.52;100.00;102192.94;5283748;28;20488;-69
2022/05/27 10:04:13;;;;;;;5.07;2.15;;;;;;;20.91;100.00;102197.78;5283674;27;20242;-70
2022/05/27 10:06:44;;;;;;;7.70;2.22;;;;;;;21.40;91.90;102195.94;5289939;28;20039;-70
2022/05/27 10:09:29;;;;;;;7.97;2.53;;;;;;;21.52;89.76;102196.16;5288221;27;20018;-70
2022/05/27 10:12:00;;;;;;;6.55;2.45;;;;;;;21.81;84.45;102193.06;5279774;28;20088;-70
2022/05/27 10:14:34;;;;;;;10.65;2.30;;;;;;;21.88;86.36;102204.81;5283068;28;20020;-70
2022/05/27 10:17:09;;;;;;;8.75;2.35;;;;;;;21.88;86.72;102207.56;5266267;28;20027;-70
2022/05/27 10:19:40;;;;;;;;;;;;;;;22.05;84.93;102204.44;5287289;28;20099;-70
2022/05/27 10:22:26;;;;;;;6.88;2.30;;;;;;;21.51;85.44;102194.47;5287262;28;19946;-70
2022/05/27 10:25:02;;;;;;;10.70;2.40;;;;;;;21.10;85.56;102201.66;5277198;28;20052;-70
2022/05/27 10:27:37;;;;;;;6.45;2.22;;;;;;;21.02;80.51;102210.00;5284102;28;20049;-70
2022/05/27 10:30:34;;;;;;;7.05;1.98;;;;;;;20.71;82.76;102210.47;5274268;28;20024;-70
2022/05/27 10:33:20;;;;;;;7.13;1.80;;;;;;;20.95;81.39;102209.97;5266402;28;20389;-69
2022/05/27 10:35:53;;;;;;;9.20;2.60;;;;;;;20.80;84.06;102208.44;5265727;28;20126;-70
2022/05/27 10:38:42;;;;;;;11.38;3.00;;;;;;;19.75;88.69;102215.53;5265908;28;20027;-70
2022/05/27 10:41:41;;;;;;;13.18;3.58;;;;;;;19.48;98.14;102213.50;5287115;28;20094;-69
2022/05/27 10:44:33;;;;;;;9.13;2.50;;;;;;;19.86;95.99;102225.91;5273904;28;20434;-70
2022/05/27 10:47:21;;;;;;;10.05;3.58;;;;;;;20.32;90.91;102224.63;5287123;28;20027;-70
2022/05/27 10:50:01;;;;;;;9.43;2.35;;;;;;;20.24;87.83;102214.72;5285727;28;20468;-70
2022/05/27 10:52:57;;;;;;;9.10;2.13;;;;;;;20.21;91.24;102220.56;5274951;28;20074;-70
2022/05/27 10:55:44;;;;;;;10.57;2.65;;;;;;;20.66;89.52;102213.78;5276369;28;20423;-70
2022/05/27 11:04:32;;;;;;;7.93;2.20;;;;;;;21.06;84.55;102222.19;5286600;28;20080;-70
2022/05/27 11:07:15;;;;;;;8.38;2.25;;;;;;;20.60;78.09;102216.50;5287299;28;20031;-70
2022/05/27 11:10:21;;;;;;;10.65;1.80;;;;;;;20.49;76.14;102225.22;5287853;28;20043;-70
2022/05/27 11:16:17;;;;;;;7.82;2.38;;;;;;;20.12;77.01;102230.75;5271234;28;20028;-70
2022/05/27 11:19:11;;;;;;;12.95;2.30;;;;;;;20.65;75.64;102217.56;5280641;28;20066;-70
2022/05/27 11:21:47;;;;;;;7.35;2.30;;;;;;;20.94;77.02;102216.50;5287248;28;20089;-70
2022/05/27 11:24:33;;;;;;;9.32;2.28;;;;;;;20.73;73.76;102226.63;5272802;28;20027;-70
2022/05/27 11:27:30;;;;;;;12.85;2.33;;;;;;;20.84;75.57;102220.63;5285187;28;20106;-70
2022/05/27 11:30:11;;;;;;;8.88;2.80;;;;;;;20.58;76.26;102221.28;5279475;28;20118;-70
2022/05/27 11:33:15;;;;;;;6.82;2.50;;;;;;;20.95;79.27;102231.81;5287672;28;20027;-70
2022/05/27 11:36:23;;;;;;;6.85;2.38;;;;;;;20.85;75.13;102227.75;5287103;28;20023;-70
2022/05/27 11:39:30;;;;;;;5.93;2.25;;;;;;;21.28;75.84;102222.91;5284389;28;20108;-70
2022/05/27 11:42:17;;;;;;;11.35;3.00;;;;;;;20.36;77.93;102232.22;5287111;28;20049;-70
2022/05/27 11:44:55;;;;;;;13.35;3.17;;;;;;;19.98;86.09;102223.50;5286906;28;20389;-70
2022/05/27 11:47:56;;;;;;;13.40;2.75;;;;;;;20.20;86.61;102223.50;5287048;28;20481;-70
2022/05/27 11:50:51;;;;;;;12.98;3.28;;;;;;;20.83;86.45;102227.09;5272192;28;20123;-69
2022/05/27 11:53:25;;;;;;;10.07;3.10;;;;;;;20.62;82.10;102230.75;5282405;28;20413;-70
2022/05/27 11:56:16;;;;;;;10.18;3.35;;;;;;;20.43;85.81;102233.13;5278315;28;20069;-70
2022/05/27 11:58:57;;;;;;;11.70;2.80;;;;;;;20.21;81.64;102230.63;5277397;28;20024;-70
2022/05/27 12:01:44;;;;;;;10.88;3.08;;;;;;;20.02;86.25;102235.69;5279178;28;20027;-70
2022/05/27 12:04:30;;;;;;;10.18;3.28;;;;;;;20.16;85.61;102223.03;5279384;28;20355;-70
2022/05/27 12:07:38;;;;;;;12.60;3.10;;;;;;;20.60;82.71;102216.50;5286260;28;20028;-70
2022/05/27 12:10:21;;;;;;;10.77;2.55;;;;;;;20.49;80.24;102219.78;5273976;28;20032;-70
2022/05/27 12:13:25;;;;;;;16.45;3.50;;;;;;;20.85;83.56;102223.16;5283670;28;20484;-70
2022/05/27 12:16:01;;;;;;;13.50;3.05;;;;;;;21.16;80.64;102219.09;5272636;28;20118;-70
2022/05/27 12:18:52;;;;;;;11.18;2.90;;;;;;;21.24;74.47;102226.28;5286358;28;20016;-70
2022/05/27 12:21:26;;;;;;;13.13;2.60;;;;;;;21.01;75.47;102229.31;5272774;28;20073;-70
2022/05/27 12:24:16;;;;;;;8.63;2.90;;;;;;;21.06;75.01;102226.81;5286546;28;20019;-70
2022/05/27 12:26:50;;;;;;;10.10;2.45;;;;;;;21.00;72.51;102233.94;5274522;28;20039;-70
2022/05/27 12:29:22;;;;;;;16.58;3.03;;;;;;;20.87;73.34;102234.69;5278252;28;20077;-70